West Sacramento, California
Current Conditions -  °F | °C
As of 12:53 AM on Monday 20 Oct 2014 (Local Time) from KSAC Reporting Station
Clear Clear  
Wind Chill: 62°   Ceiling: Unl
Heat Index: 62°   Visibility: 10mi
Dew Point: 57°   Wind: 5mph
Humidity: 84%   Direction: 190°S
Pressure: 29.88"   Gusts: NA
Location:  38.57°N, 121.55°W
Report Text: KSAC 200753Z AUTO 19004KT 10SM CLR 17/14 A2988 RMK AO2 SLP116 T01670139 402720106
Loading
Personal Weather Stations






























Interactive Weather Map New forecast layout! Learn more

10-Day Weather Forecast

Advertisements
Track Severe Weather on mobile